createdAt,value
2022-11-29T00:01:23.951Z,33.13
2022-11-29T00:03:51.230Z,33.60
2022-11-29T00:06:19.671Z,29.67
2022-11-29T00:08:46.870Z,29.95
2022-11-29T00:11:35.246Z,27.45
2022-11-29T00:14:02.598Z,28.70
2022-11-29T00:16:29.717Z,26.23
2022-11-29T00:18:56.592Z,28.42
2022-11-29T00:21:23.407Z,26.73
2022-11-29T00:23:50.230Z,30.08
2022-11-29T00:26:17.374Z,28.55
2022-11-29T00:28:44.372Z,28.15
2022-11-29T00:31:15.443Z,28.20
2022-11-29T00:33:42.505Z,25.63
2022-11-29T00:36:09.911Z,26.63
2022-11-29T00:38:37.021Z,27.75
2022-11-29T00:41:03.924Z,27.65
2022-11-29T00:43:30.852Z,26.20
2022-11-29T00:45:57.716Z,27.63
2022-11-29T00:48:24.799Z,27.60
2022-11-29T00:50:52.041Z,31.35
2022-11-29T00:53:19.018Z,29.48
2022-11-29T00:55:48.000Z,27.42
2022-11-29T00:58:15.013Z,24.83
2022-11-29T01:00:42.097Z,29.35
2022-11-29T01:03:09.277Z,28.38
2022-11-29T01:05:36.131Z,28.85
2022-11-29T01:08:03.052Z,28.45
2022-11-29T01:10:29.968Z,29.45
2022-11-29T01:12:56.875Z,25.15
2022-11-29T01:15:23.944Z,29.70
2022-11-29T01:17:51.160Z,27.58
2022-11-29T01:20:18.114Z,30.83
2022-11-29T01:22:45.619Z,28.02
2022-11-29T01:25:13.237Z,31.85
2022-11-29T01:27:40.756Z,28.35
2022-11-29T01:30:08.431Z,32.22
2022-11-29T01:32:35.701Z,30.05
2022-11-29T01:35:02.941Z,28.25
2022-11-29T01:37:31.254Z,28.25
2022-11-29T01:39:58.246Z,25.90
2022-11-29T01:42:25.216Z,34.53
2022-11-29T01:45:00.384Z,28.10
2022-11-29T01:47:27.449Z,27.05
2022-11-29T01:49:54.596Z,33.15
2022-11-29T01:52:24.220Z,28.52
2022-11-29T01:54:52.606Z,31.63
2022-11-29T01:57:20.496Z,33.72
2022-11-29T01:59:49.722Z,29.90
2022-11-29T02:02:26.858Z,29.42
2022-11-29T02:04:58.375Z,30.48
2022-11-29T02:07:25.902Z,28.45
2022-11-29T02:09:52.976Z,27.92
2022-11-29T02:12:25.963Z,31.33
2022-11-29T02:14:55.609Z,28.58
2022-11-29T02:17:22.752Z,29.80
2022-11-29T02:20:28.536Z,28.50
2022-11-29T02:23:14.430Z,36.83
2022-11-29T02:25:59.521Z,33.75
2022-11-29T02:28:26.574Z,33.30
2022-11-29T02:31:11.837Z,35.97
2022-11-29T02:33:44.656Z,33.60
2022-11-29T02:36:15.375Z,30.38
2022-11-29T02:38:56.770Z,34.97
2022-11-29T02:41:49.828Z,36.90
2022-11-29T02:44:40.088Z,32.95
2022-11-29T02:47:22.250Z,36.28
2022-11-29T02:50:10.197Z,40.15
2022-11-29T02:52:39.808Z,35.28
2022-11-29T02:55:06.808Z,40.47
2022-11-29T02:57:38.620Z,38.63
2022-11-29T03:00:11.050Z,42.08
2022-11-29T03:02:45.829Z,40.15
2022-11-29T03:05:31.388Z,38.13
2022-11-29T03:07:58.716Z,41.78
2022-11-29T03:10:31.874Z,40.40
2022-11-29T03:12:59.154Z,43.00
2022-11-29T03:15:31.480Z,47.15
2022-11-29T03:18:10.851Z,41.80
2022-11-29T03:20:56.574Z,41.58
2022-11-29T03:23:23.936Z,41.65
2022-11-29T03:26:00.169Z,40.63
2022-11-29T03:28:33.104Z,43.85
2022-11-29T03:31:04.544Z,41.20
2022-11-29T03:33:54.199Z,39.42
2022-11-29T03:36:36.471Z,41.50
2022-11-29T03:39:05.974Z,36.00
2022-11-29T03:42:11.572Z,36.53
2022-11-29T03:44:55.626Z,38.15
2022-11-29T03:47:26.650Z,40.75
2022-11-29T03:49:53.572Z,43.88
2022-11-29T03:52:20.462Z,38.88
2022-11-29T03:54:53.460Z,42.15
2022-11-29T03:57:24.000Z,36.22
2022-11-29T04:00:13.608Z,33.75
2022-11-29T04:02:59.060Z,42.65
2022-11-29T04:05:35.894Z,40.80
2022-11-29T04:08:21.143Z,39.22
2022-11-29T04:11:06.888Z,41.17
2022-11-29T04:13:39.618Z,39.08
2022-11-29T04:16:07.681Z,41.53
2022-11-29T04:18:37.409Z,42.30
2022-11-29T04:21:22.929Z,40.92
2022-11-29T04:24:00.180Z,44.33
2022-11-29T04:26:34.618Z,36.53
2022-11-29T04:29:22.256Z,36.90
2022-11-29T04:31:52.278Z,38.95
2022-11-29T04:34:37.855Z,35.83
2022-11-29T04:37:34.308Z,35.53
2022-11-29T04:40:07.082Z,38.25
2022-11-29T04:42:42.769Z,37.22
2022-11-29T04:45:12.598Z,36.58
2022-11-29T04:47:39.493Z,36.03
2022-11-29T04:50:41.986Z,34.47
2022-11-29T04:53:27.295Z,34.13
2022-11-29T04:56:13.454Z,42.78
2022-11-29T04:59:15.706Z,33.28
2022-11-29T05:02:00.195Z,36.90
2022-11-29T05:04:33.756Z,34.20
2022-11-29T05:07:08.271Z,33.38
2022-11-29T05:10:01.315Z,34.63
2022-11-29T05:12:32.071Z,34.47
2022-11-29T05:15:04.552Z,33.75
2022-11-29T05:17:37.223Z,32.40
2022-11-29T05:20:22.357Z,33.15
2022-11-29T05:23:07.505Z,35.70
2022-11-29T05:25:45.113Z,35.80
2022-11-29T05:28:40.806Z,33.40
2022-11-29T05:31:07.658Z,34.60
2022-11-29T05:33:40.601Z,34.35
2022-11-29T05:36:07.428Z,38.03
2022-11-29T05:38:49.328Z,38.10
2022-11-29T05:41:22.120Z,39.47
2022-11-29T05:43:48.968Z,40.15
2022-11-29T05:46:22.064Z,35.38
2022-11-29T05:49:01.214Z,36.03
2022-11-29T05:51:28.044Z,40.22
2022-11-29T05:53:54.842Z,39.13
2022-11-29T05:56:30.384Z,36.70
2022-11-29T05:58:59.979Z,37.58
2022-11-29T06:01:53.569Z,42.07
2022-11-29T06:04:23.425Z,35.85
2022-11-29T06:06:58.097Z,35.70
2022-11-29T06:09:27.621Z,36.65
2022-11-29T06:12:02.619Z,36.30
2022-11-29T06:14:32.324Z,34.88
2022-11-29T06:17:05.969Z,39.10
2022-11-29T06:19:44.748Z,44.33
2022-11-29T06:22:21.015Z,38.78
2022-11-29T06:24:53.567Z,42.28
2022-11-29T06:27:29.667Z,39.05
2022-11-29T06:29:56.449Z,40.47
2022-11-29T06:32:43.275Z,35.55
2022-11-29T06:35:30.257Z,37.72
2022-11-29T06:37:58.565Z,49.08
2022-11-29T06:40:25.607Z,48.22
2022-11-29T06:42:52.435Z,48.75
2022-11-29T06:45:19.391Z,49.45
2022-11-29T06:47:47.323Z,47.58
2022-11-29T06:50:29.367Z,47.65
2022-11-29T06:53:08.778Z,48.50
2022-11-29T06:55:51.089Z,45.28
2022-11-29T06:58:39.895Z,44.22
2022-11-29T07:01:25.362Z,46.88
2022-11-29T07:03:58.224Z,48.58
2022-11-29T07:06:27.305Z,46.67
2022-11-29T07:08:56.700Z,51.05
2022-11-29T07:11:23.701Z,47.53
2022-11-29T07:13:50.804Z,55.58
2022-11-29T07:16:22.058Z,53.35
2022-11-29T07:19:12.716Z,49.83
2022-11-29T07:21:58.399Z,50.00
2022-11-29T07:24:31.005Z,48.28
2022-11-29T07:27:02.628Z,50.55
2022-11-29T07:29:29.459Z,44.50
2022-11-29T07:32:15.024Z,52.13
2022-11-29T07:34:48.767Z,44.17
2022-11-29T07:37:30.687Z,52.92
2022-11-29T07:40:16.255Z,45.33
2022-11-29T07:42:43.032Z,43.90
2022-11-29T07:45:39.235Z,47.83
2022-11-29T07:48:07.053Z,46.00
2022-11-29T07:50:35.449Z,49.75
2022-11-29T07:53:02.542Z,56.60
2022-11-29T07:55:29.897Z,42.17
2022-11-29T07:57:56.769Z,43.75
2022-11-29T08:00:23.782Z,46.08
2022-11-29T08:02:51.205Z,44.80
2022-11-29T08:05:18.127Z,39.42
2022-11-29T08:07:44.979Z,42.42
2022-11-29T08:10:15.415Z,45.50
2022-11-29T08:12:45.992Z,44.33
2022-11-29T08:15:13.444Z,41.60
2022-11-29T08:17:40.428Z,40.60
2022-11-29T08:20:07.654Z,49.80
2022-11-29T08:22:35.008Z,45.70
2022-11-29T08:25:02.186Z,40.08
2022-11-29T08:27:30.914Z,45.70
2022-11-29T08:29:57.840Z,41.78
2022-11-29T08:32:25.277Z,40.88
2022-11-29T08:34:52.388Z,42.58
2022-11-29T08:37:19.188Z,41.30
2022-11-29T08:39:46.075Z,41.70
2022-11-29T08:42:12.857Z,42.55
2022-11-29T08:44:39.769Z,45.75
2022-11-29T08:47:24.841Z,49.08
2022-11-29T08:50:04.034Z,59.78
2022-11-29T08:52:52.766Z,57.28
2022-11-29T08:55:20.252Z,47.03
2022-11-29T08:57:47.464Z,55.15
2022-11-29T09:00:14.782Z,51.13
2022-11-29T09:02:41.777Z,57.72
2022-11-29T09:05:09.491Z,51.03
2022-11-29T09:07:36.507Z,68.22
2022-11-29T09:10:06.042Z,50.65
2022-11-29T09:12:32.946Z,58.47
2022-11-29T09:14:59.841Z,52.28
2022-11-29T09:17:27.314Z,56.78
2022-11-29T09:19:54.104Z,53.92
2022-11-29T09:22:20.847Z,63.58
2022-11-29T09:24:47.871Z,61.25
2022-11-29T09:27:14.800Z,59.15
2022-11-29T09:29:41.586Z,57.00
2022-11-29T09:32:08.595Z,77.68
2022-11-29T09:34:35.363Z,60.45
2022-11-29T09:37:02.155Z,54.97
2022-11-29T09:39:28.933Z,54.22
2022-11-29T09:42:01.148Z,60.33
2022-11-29T09:44:33.976Z,63.60
2022-11-29T09:47:15.925Z,66.03
2022-11-29T09:49:52.449Z,71.07
2022-11-29T09:52:34.426Z,61.80
2022-11-29T09:55:29.513Z,62.55
2022-11-29T09:57:58.544Z,65.53
2022-11-29T10:00:26.207Z,70.43
2022-11-29T10:02:56.115Z,61.95
2022-11-29T10:05:45.203Z,66.93
2022-11-29T10:08:15.465Z,70.97
2022-11-29T10:10:49.644Z,76.30
2022-11-29T10:13:16.475Z,75.32
2022-11-29T10:15:47.389Z,69.28
2022-11-29T10:18:14.163Z,80.18
2022-11-29T10:20:48.654Z,80.53
2022-11-29T10:23:15.993Z,83.70
2022-11-29T10:25:45.577Z,77.95
2022-11-29T10:28:14.584Z,75.40
2022-11-29T10:30:42.651Z,76.35
2022-11-29T10:33:16.010Z,78.97
2022-11-29T10:35:42.934Z,73.43
2022-11-29T10:38:30.420Z,68.07
2022-11-29T10:40:59.313Z,68.22
2022-11-29T10:43:26.178Z,111.30
2022-11-29T10:45:56.369Z,69.20
2022-11-29T10:48:25.306Z,65.82
2022-11-29T10:50:52.875Z,78.55
2022-11-29T10:53:27.228Z,77.03
2022-11-29T10:55:54.001Z,67.97
2022-11-29T10:58:28.409Z,64.60
2022-11-29T11:01:08.807Z,62.97
2022-11-29T11:03:37.620Z,56.95
2022-11-29T11:06:08.553Z,59.83
2022-11-29T11:08:35.596Z,62.08
2022-11-29T11:11:03.390Z,58.35
2022-11-29T11:13:31.658Z,55.33
2022-11-29T11:16:07.191Z,55.10
2022-11-29T11:18:33.960Z,55.85
2022-11-29T11:21:04.795Z,56.63
2022-11-29T11:23:33.123Z,58.35
2022-11-29T11:26:04.381Z,59.33
2022-11-29T11:28:43.563Z,59.65
2022-11-29T11:31:11.742Z,58.30
2022-11-29T11:33:45.306Z,57.33
2022-11-29T11:36:14.901Z,57.28
2022-11-29T11:53:55.828Z,58.20
2022-11-29T11:56:23.812Z,54.00
2022-11-29T11:58:54.907Z,58.50
2022-11-29T12:01:27.331Z,55.88
2022-11-29T12:04:15.012Z,55.13
2022-11-29T12:06:54.380Z,58.83
2022-11-29T12:09:36.420Z,63.08
2022-11-29T12:12:11.152Z,55.90
2022-11-29T12:14:38.061Z,62.83
2022-11-29T12:17:20.211Z,61.47
2022-11-29T12:19:52.988Z,58.78
2022-11-29T12:22:23.088Z,58.20
2022-11-29T12:24:57.265Z,64.78
2022-11-29T12:27:24.107Z,60.85
2022-11-29T12:29:51.007Z,57.55
2022-11-29T12:32:17.849Z,63.03
2022-11-29T12:34:51.612Z,68.35
2022-11-29T12:37:24.332Z,66.38
2022-11-29T12:39:52.214Z,60.35
2022-11-29T12:42:37.672Z,61.47
2022-11-29T12:45:22.608Z,66.35
2022-11-29T12:48:02.483Z,72.40
2022-11-29T12:50:39.788Z,64.00
2022-11-29T12:53:26.839Z,61.20
2022-11-29T12:55:57.212Z,67.82
2022-11-29T12:58:30.952Z,61.10
2022-11-29T13:01:12.906Z,71.57
2022-11-29T13:03:42.940Z,65.38
2022-11-29T13:06:29.858Z,60.85
2022-11-29T13:09:02.641Z,66.70
2022-11-29T13:11:29.479Z,64.53
2022-11-29T13:14:41.539Z,57.45
2022-11-29T13:17:03.842Z,51.78
2022-11-29T13:19:43.297Z,65.78
2022-11-29T13:22:34.471Z,59.30
2022-11-29T13:27:38.436Z,72.38
2022-11-29T13:30:06.734Z,73.45
2022-11-29T13:32:57.110Z,65.03
2022-11-29T13:35:24.035Z,63.10
2022-11-29T13:38:17.140Z,73.03
2022-11-29T13:40:57.824Z,65.70
2022-11-29T13:43:37.755Z,63.70
2022-11-29T13:46:23.140Z,50.65
2022-11-29T13:48:51.997Z,54.33
2022-11-29T13:51:27.117Z,63.85
2022-11-29T13:53:55.229Z,55.05
2022-11-29T13:56:26.467Z,57.70
2022-11-29T13:58:54.644Z,56.00
2022-11-29T14:01:22.791Z,51.72
2022-11-29T14:04:19.081Z,61.95
2022-11-29T14:06:48.317Z,53.15
2022-11-29T14:09:26.752Z,46.45
2022-11-29T14:12:00.268Z,54.53
2022-11-29T14:14:41.398Z,55.78
2022-11-29T14:17:28.278Z,56.95
2022-11-29T14:20:15.049Z,53.92
2022-11-29T14:23:02.106Z,56.97
2022-11-29T14:28:16.867Z,54.22
2022-11-29T14:30:46.672Z,61.67
2022-11-29T14:33:13.829Z,68.45
2022-11-29T14:35:57.348Z,65.30
2022-11-29T14:38:30.995Z,61.45
2022-11-29T14:41:02.159Z,55.75
2022-11-29T14:43:32.134Z,57.38
2022-11-29T14:46:14.716Z,59.90
2022-11-29T14:48:56.650Z,61.40
2022-11-29T14:51:26.161Z,55.65
2022-11-29T14:54:15.087Z,53.17
2022-11-29T14:56:43.464Z,57.45
2022-11-29T14:59:28.863Z,58.92
2022-11-29T15:01:56.222Z,58.90
2022-11-29T15:04:26.122Z,54.60
2022-11-29T15:06:55.824Z,53.58
2022-11-29T15:09:24.014Z,58.80
2022-11-29T15:11:53.757Z,52.22
2022-11-29T15:14:25.350Z,61.65
2022-11-29T15:17:01.286Z,52.75
2022-11-29T15:19:40.245Z,51.83
2022-11-29T15:22:27.163Z,57.75
2022-11-29T15:24:55.832Z,58.47
2022-11-29T15:27:23.317Z,48.95
2022-11-29T15:29:50.618Z,60.58
2022-11-29T15:32:28.732Z,59.33
2022-11-29T15:34:56.545Z,48.28
2022-11-29T15:37:25.452Z,49.80
2022-11-29T15:40:10.894Z,51.92
2022-11-29T15:42:38.915Z,61.53
2022-11-29T15:45:24.257Z,66.45
2022-11-29T15:47:51.502Z,56.20
2022-11-29T15:50:31.245Z,53.42
2022-11-29T15:53:01.380Z,53.85
2022-11-29T15:55:31.804Z,57.05
2022-11-29T15:58:08.320Z,58.10
2022-11-29T16:00:36.077Z,64.20
2022-11-29T16:03:04.496Z,64.72
2022-11-29T16:05:33.752Z,67.72
2022-11-29T16:08:02.482Z,71.13
2022-11-29T16:10:35.487Z,64.57
2022-11-29T16:13:31.208Z,61.00
2022-11-29T16:16:10.643Z,64.55
2022-11-29T16:18:41.086Z,57.37
2022-11-29T16:23:35.048Z,54.78
2022-11-29T16:26:05.057Z,61.85
2022-11-29T16:28:34.119Z,64.40
2022-11-29T16:31:01.358Z,59.80
2022-11-29T16:33:28.437Z,67.43
2022-11-29T16:36:06.641Z,63.83
2022-11-29T16:38:33.792Z,60.95
2022-11-29T16:41:08.762Z,67.60
2022-11-29T16:43:47.743Z,72.00
2022-11-29T16:46:20.260Z,64.90
2022-11-29T16:48:48.213Z,64.60
2022-11-29T16:51:15.713Z,71.80
2022-11-29T16:53:47.969Z,73.30
2022-11-29T16:56:16.442Z,68.72
2022-11-29T16:59:25.730Z,62.38
2022-11-29T17:01:32.952Z,62.20
2022-11-29T17:04:00.688Z,62.35
2022-11-29T17:06:28.960Z,63.05
2022-11-29T17:08:58.098Z,61.83
2022-11-29T17:11:25.631Z,62.25
2022-11-29T17:13:53.441Z,68.70
2022-11-29T17:16:22.304Z,61.50
2022-11-29T17:18:49.614Z,66.60
2022-11-29T17:21:26.786Z,60.60
2022-11-29T17:23:54.774Z,65.20
2022-11-29T17:26:22.578Z,58.92
2022-11-29T17:28:50.921Z,63.50
2022-11-29T17:31:20.137Z,66.85
2022-11-29T17:33:47.296Z,65.97
2022-11-29T17:36:16.682Z,63.10
2022-11-29T17:38:44.758Z,62.07
2022-11-29T17:41:13.231Z,67.00
2022-11-29T17:43:40.764Z,71.97
2022-11-29T17:46:11.548Z,63.30
2022-11-29T17:48:39.104Z,61.85
2022-11-29T17:51:17.457Z,64.75
2022-11-29T17:53:54.761Z,68.18
2022-11-29T17:56:23.115Z,73.25
2022-11-29T17:58:54.390Z,70.68
2022-11-29T18:01:22.846Z,72.25
2022-11-29T18:03:52.723Z,75.85
2022-11-29T18:06:26.535Z,76.47
2022-11-29T18:08:54.686Z,77.82
2022-11-29T18:11:23.154Z,69.45
2022-11-29T18:13:50.920Z,67.72
2022-11-29T18:16:19.659Z,65.95
2022-11-29T18:18:47.127Z,68.35
2022-11-29T18:21:14.842Z,71.15
2022-11-29T18:23:43.344Z,73.43
2022-11-29T18:26:18.073Z,65.13
2022-11-29T18:28:45.408Z,64.70
2022-11-29T18:31:16.707Z,69.20
2022-11-29T18:33:44.588Z,60.28
2022-11-29T18:36:13.047Z,64.35
2022-11-29T18:38:41.011Z,57.67
2022-11-29T18:41:09.071Z,69.53
2022-11-29T18:43:40.107Z,56.50
2022-11-29T18:46:08.411Z,58.65
2022-11-29T18:48:35.932Z,67.45
2022-11-29T18:51:08.801Z,60.83
2022-11-29T18:53:35.855Z,63.35
2022-11-29T18:56:04.111Z,53.67
2022-11-29T18:58:31.148Z,60.47
2022-11-29T19:01:11.435Z,58.17
2022-11-29T19:03:39.445Z,64.40
2022-11-29T19:06:11.575Z,57.65
2022-11-29T19:08:39.879Z,57.88
2022-11-29T19:11:08.358Z,65.53
2022-11-29T19:13:36.470Z,66.32
2022-11-29T19:16:04.320Z,60.50
2022-11-29T19:18:31.241Z,56.92
2022-11-29T19:21:08.098Z,60.17
2022-11-29T19:23:34.912Z,60.60
2022-11-29T19:26:08.644Z,59.30
2022-11-29T19:28:37.242Z,58.67
2022-11-29T19:31:05.498Z,62.80
2022-11-29T19:33:37.344Z,63.95
2022-11-29T19:36:07.872Z,65.10
2022-11-29T19:41:07.669Z,68.57
2022-11-29T19:43:34.596Z,61.03
2022-11-29T19:46:22.892Z,59.90
2022-11-29T19:48:52.050Z,65.85
2022-11-29T19:51:19.104Z,60.05
2022-11-29T19:53:46.385Z,66.22
2022-11-29T19:56:14.688Z,60.33
2022-11-29T19:58:42.074Z,68.78
2022-11-29T20:01:10.641Z,62.33
2022-11-29T20:03:37.827Z,65.22
2022-11-29T20:06:06.229Z,60.33
2022-11-29T20:08:33.609Z,60.75
2022-11-29T20:11:10.803Z,66.50
2022-11-29T20:13:38.464Z,54.50
2022-11-29T20:16:08.935Z,72.28
2022-11-29T20:18:37.173Z,61.55
2022-11-29T20:21:08.702Z,70.00
2022-11-29T20:23:35.585Z,56.35
2022-11-29T20:26:02.560Z,58.80
2022-11-29T20:28:30.243Z,67.78
2022-11-29T20:30:57.426Z,69.75
2022-11-29T20:33:25.241Z,68.70
2022-11-29T20:35:58.393Z,70.97
2022-11-29T20:38:34.145Z,67.38
2022-11-29T20:41:07.725Z,69.60
2022-11-29T20:43:44.707Z,66.40
2022-11-29T20:46:11.816Z,72.10
2022-11-29T20:48:38.830Z,60.10
2022-11-29T20:51:06.087Z,68.95
2022-11-29T20:53:34.552Z,71.60
2022-11-29T20:56:01.845Z,70.70
2022-11-29T20:58:29.111Z,73.07
2022-11-29T21:00:56.313Z,69.20
2022-11-29T21:03:23.687Z,71.95
2022-11-29T21:05:50.984Z,75.93
2022-11-29T21:08:18.852Z,63.13
2022-11-29T21:10:45.772Z,73.65
2022-11-29T21:13:13.163Z,70.97
2022-11-29T21:15:40.501Z,82.22
2022-11-29T21:18:07.569Z,79.85
2022-11-29T21:20:34.605Z,75.93
2022-11-29T21:23:04.567Z,76.75
2022-11-29T21:25:48.353Z,68.93
2022-11-29T21:28:16.180Z,78.57
2022-11-29T21:30:43.398Z,68.22
2022-11-29T21:33:10.837Z,65.85
2022-11-29T21:35:42.257Z,71.38
2022-11-29T21:38:11.823Z,66.88
2022-11-29T21:40:38.710Z,71.57
2022-11-29T21:43:05.769Z,68.85
2022-11-29T21:45:32.584Z,63.30
2022-11-29T21:48:02.282Z,60.60
2022-11-29T21:50:29.172Z,60.90
2022-11-29T21:52:56.276Z,70.47
2022-11-29T21:55:23.106Z,75.25
2022-11-29T21:57:49.970Z,66.10
2022-11-29T22:00:17.142Z,58.38
2022-11-29T22:02:44.114Z,53.33
2022-11-29T22:05:11.255Z,58.67
2022-11-29T22:07:38.248Z,64.60
2022-11-29T22:10:11.606Z,55.65
2022-11-29T22:12:49.309Z,65.95
2022-11-29T22:15:24.263Z,59.83
2022-11-29T22:17:53.476Z,69.45
2022-11-29T22:20:20.503Z,63.42
2022-11-29T22:22:48.936Z,70.40
2022-11-29T22:25:16.323Z,69.20
2022-11-29T22:27:43.271Z,72.70
2022-11-29T22:30:10.509Z,75.88
2022-11-29T22:32:37.458Z,69.28
2022-11-29T22:35:04.580Z,78.47
2022-11-29T22:37:31.503Z,62.10
2022-11-29T22:39:58.332Z,71.45
2022-11-29T22:42:25.282Z,71.35
2022-11-29T22:44:52.300Z,69.00
2022-11-29T22:47:19.062Z,71.40
2022-11-29T22:49:45.912Z,76.50
2022-11-29T22:52:12.789Z,67.57
2022-11-29T22:54:39.631Z,69.80
2022-11-29T22:57:06.496Z,71.55
2022-11-29T22:59:33.334Z,79.00
2022-11-29T23:02:00.448Z,74.28
2022-11-29T23:04:27.327Z,77.72
2022-11-29T23:06:54.147Z,70.53
2022-11-29T23:09:22.531Z,72.72
2022-11-29T23:11:52.653Z,66.78
2022-11-29T23:14:19.813Z,67.93
2022-11-29T23:16:46.823Z,69.60
2022-11-29T23:19:16.342Z,64.50
2022-11-29T23:21:45.857Z,64.90
2022-11-29T23:24:13.419Z,71.03
2022-11-29T23:26:41.856Z,61.58
2022-11-29T23:29:10.329Z,67.78
2022-11-29T23:31:37.357Z,69.63
2022-11-29T23:34:04.431Z,71.60
2022-11-29T23:36:31.607Z,69.30
2022-11-29T23:38:58.568Z,74.88
2022-11-29T23:41:25.383Z,83.22
2022-11-29T23:43:52.213Z,73.10
2022-11-29T23:46:20.880Z,71.55
2022-11-29T23:48:48.381Z,73.55
2022-11-29T23:51:15.634Z,75.55
2022-11-29T23:53:42.670Z,70.32
2022-11-29T23:56:17.090Z,71.75
2022-11-29T23:58:44.333Z,74.80
